Galena, Galena Airport (PAGA)

NameGalena Airport
CityGalena
CountryUnited States
ICAOPAGA
IATAGAL
Altitude47 m
CoordinatesGoogle Map
Live Air TrafficLiveATC.net
METARPAGA 122056Z AUTO 02005KT 10SM OVC010 M08/M10 A2994
2019-11-12 20:56:00 Wind: North (20°) 2.57 m/s - Visibility: 16093.4 m - Temperature: -8 °C - Dew point: -10 °C - Humidity: 85.7% - Pressure: 1013.88 hPa
Statistics

The table below shows the detailed information of all flights to/from Galena, Galena Airport (PAGA).